sensor_id;sensor_type;location;lat;lon;timestamp;P1;durP1;ratioP1;P2;durP2;ratioP2
27293;SDS011;14785;52.556;13.430;2024-03-25T00:01:19;66.40;;;62.17;;
27293;SDS011;14785;52.556;13.430;2024-03-25T00:03:44;51.93;;;48.57;;
27293;SDS011;14785;52.556;13.430;2024-03-25T00:06:09;45.63;;;42.60;;
27293;SDS011;14785;52.556;13.430;2024-03-25T00:08:35;35.03;;;32.78;;
27293;SDS011;14785;52.556;13.430;2024-03-25T00:11:01;36.22;;;33.83;;
27293;SDS011;14785;52.556;13.430;2024-03-25T00:13:27;39.43;;;37.03;;
27293;SDS011;14785;52.556;13.430;2024-03-25T00:15:52;47.40;;;44.47;;
27293;SDS011;14785;52.556;13.430;2024-03-25T00:18:18;31.87;;;29.63;;
27293;SDS011;14785;52.556;13.430;2024-03-25T00:20:43;33.67;;;31.40;;
27293;SDS011;14785;52.556;13.430;2024-03-25T00:23:09;40.17;;;37.67;;
27293;SDS011;14785;52.556;13.430;2024-03-25T00:25:34;48.17;;;45.07;;
27293;SDS011;14785;52.556;13.430;2024-03-25T00:27:59;33.83;;;31.53;;
27293;SDS011;14785;52.556;13.430;2024-03-25T00:30:25;49.60;;;46.60;;
27293;SDS011;14785;52.556;13.430;2024-03-25T00:32:50;55.87;;;52.53;;
27293;SDS011;14785;52.556;13.430;2024-03-25T00:35:16;58.00;;;54.50;;
27293;SDS011;14785;52.556;13.430;2024-03-25T00:37:43;59.47;;;55.90;;
27293;SDS011;14785;52.556;13.430;2024-03-25T00:40:08;61.87;;;57.97;;
27293;SDS011;14785;52.556;13.430;2024-03-25T00:42:33;60.93;;;57.30;;
27293;SDS011;14785;52.556;13.430;2024-03-25T00:44:59;51.90;;;48.47;;
27293;SDS011;14785;52.556;13.430;2024-03-25T00:47:24;37.37;;;35.00;;
27293;SDS011;14785;52.556;13.430;2024-03-25T00:52:16;61.27;;;57.40;;
27293;SDS011;14785;52.556;13.430;2024-03-25T00:54:41;47.23;;;44.37;;
27293;SDS011;14785;52.556;13.430;2024-03-25T00:57:07;37.43;;;34.73;;
27293;SDS011;14785;52.556;13.430;2024-03-25T00:59:33;38.93;;;35.80;;
27293;SDS011;14785;52.556;13.430;2024-03-25T01:01:58;53.38;;;50.03;;
27293;SDS011;14785;52.556;13.430;2024-03-25T01:04:24;40.00;;;37.13;;
27293;SDS011;14785;52.556;13.430;2024-03-25T01:06:49;29.57;;;27.23;;
27293;SDS011;14785;52.556;13.430;2024-03-25T01:09:15;39.60;;;36.67;;
27293;SDS011;14785;52.556;13.430;2024-03-25T01:11:41;44.75;;;41.78;;
27293;SDS011;14785;52.556;13.430;2024-03-25T01:14:06;39.23;;;36.50;;
27293;SDS011;14785;52.556;13.430;2024-03-25T01:16:32;42.87;;;40.00;;
27293;SDS011;14785;52.556;13.430;2024-03-25T01:18:58;62.05;;;58.10;;
27293;SDS011;14785;52.556;13.430;2024-03-25T01:21:24;53.30;;;49.92;;
27293;SDS011;14785;52.556;13.430;2024-03-25T01:23:49;18.15;;;16.52;;
27293;SDS011;14785;52.556;13.430;2024-03-25T01:26:15;33.10;;;30.40;;
27293;SDS011;14785;52.556;13.430;2024-03-25T01:28:40;29.67;;;27.37;;
27293;SDS011;14785;52.556;13.430;2024-03-25T01:31:07;35.30;;;32.40;;
27293;SDS011;14785;52.556;13.430;2024-03-25T01:33:33;53.75;;;50.08;;
27293;SDS011;14785;52.556;13.430;2024-03-25T01:35:59;45.03;;;41.63;;
27293;SDS011;14785;52.556;13.430;2024-03-25T01:38:26;36.42;;;33.78;;
27293;SDS011;14785;52.556;13.430;2024-03-25T01:40:51;47.63;;;44.27;;
27293;SDS011;14785;52.556;13.430;2024-03-25T01:43:17;40.25;;;36.83;;
27293;SDS011;14785;52.556;13.430;2024-03-25T01:45:42;39.73;;;36.53;;
27293;SDS011;14785;52.556;13.430;2024-03-25T01:48:08;45.20;;;41.33;;
27293;SDS011;14785;52.556;13.430;2024-03-25T01:50:42;43.40;;;39.85;;
27293;SDS011;14785;52.556;13.430;2024-03-25T01:53:11;41.67;;;38.58;;
27293;SDS011;14785;52.556;13.430;2024-03-25T01:55:38;56.22;;;52.30;;
27293;SDS011;14785;52.556;13.430;2024-03-25T01:58:04;53.22;;;49.42;;
27293;SDS011;14785;52.556;13.430;2024-03-25T02:00:32;51.95;;;48.08;;
27293;SDS011;14785;52.556;13.430;2024-03-25T02:02:59;50.13;;;46.22;;
27293;SDS011;14785;52.556;13.430;2024-03-25T02:05:25;80.80;;;75.80;;
27293;SDS011;14785;52.556;13.430;2024-03-25T02:07:51;100.95;;;94.93;;
27293;SDS011;14785;52.556;13.430;2024-03-25T02:10:17;82.63;;;77.50;;
27293;SDS011;14785;52.556;13.430;2024-03-25T02:12:44;84.50;;;79.68;;
27293;SDS011;14785;52.556;13.430;2024-03-25T02:15:11;93.05;;;87.70;;
27293;SDS011;14785;52.556;13.430;2024-03-25T02:17:38;84.15;;;79.22;;
27293;SDS011;14785;52.556;13.430;2024-03-25T02:20:04;51.88;;;48.78;;
27293;SDS011;14785;52.556;13.430;2024-03-25T02:22:35;65.47;;;61.92;;
27293;SDS011;14785;52.556;13.430;2024-03-25T02:25:08;88.32;;;83.45;;
27293;SDS011;14785;52.556;13.430;2024-03-25T02:27:35;81.25;;;76.65;;
27293;SDS011;14785;52.556;13.430;2024-03-25T02:30:04;67.90;;;64.18;;
27293;SDS011;14785;52.556;13.430;2024-03-25T02:32:32;87.03;;;82.35;;
27293;SDS011;14785;52.556;13.430;2024-03-25T02:34:57;45.73;;;43.10;;
27293;SDS011;14785;52.556;13.430;2024-03-25T02:37:24;76.85;;;72.28;;
27293;SDS011;14785;52.556;13.430;2024-03-25T02:39:51;68.57;;;64.38;;
27293;SDS011;14785;52.556;13.430;2024-03-25T02:42:18;111.45;;;105.43;;
27293;SDS011;14785;52.556;13.430;2024-03-25T02:44:44;50.50;;;47.50;;
27293;SDS011;14785;52.556;13.430;2024-03-25T02:47:11;61.22;;;57.47;;
27293;SDS011;14785;52.556;13.430;2024-03-25T02:49:37;126.63;;;119.80;;
27293;SDS011;14785;52.556;13.430;2024-03-25T02:52:02;96.53;;;91.27;;
27293;SDS011;14785;52.556;13.430;2024-03-25T02:54:28;61.53;;;58.05;;
27293;SDS011;14785;52.556;13.430;2024-03-25T02:56:53;108.10;;;101.70;;
27293;SDS011;14785;52.556;13.430;2024-03-25T02:59:19;64.03;;;60.10;;
27293;SDS011;14785;52.556;13.430;2024-03-25T03:01:44;66.60;;;62.70;;
27293;SDS011;14785;52.556;13.430;2024-03-25T03:04:09;54.27;;;51.10;;
27293;SDS011;14785;52.556;13.430;2024-03-25T03:06:35;82.63;;;77.93;;
27293;SDS011;14785;52.556;13.430;2024-03-25T03:09:00;68.50;;;64.53;;
27293;SDS011;14785;52.556;13.430;2024-03-25T03:11:27;69.38;;;65.35;;
27293;SDS011;14785;52.556;13.430;2024-03-25T03:13:52;68.37;;;64.13;;
27293;SDS011;14785;52.556;13.430;2024-03-25T03:16:17;80.77;;;76.20;;
27293;SDS011;14785;52.556;13.430;2024-03-25T03:18:43;153.40;;;145.07;;
27293;SDS011;14785;52.556;13.430;2024-03-25T03:21:08;118.80;;;111.87;;
27293;SDS011;14785;52.556;13.430;2024-03-25T03:23:34;105.73;;;99.63;;
27293;SDS011;14785;52.556;13.430;2024-03-25T03:25:59;115.80;;;108.63;;
27293;SDS011;14785;52.556;13.430;2024-03-25T03:28:25;170.95;;;161.27;;
27293;SDS011;14785;52.556;13.430;2024-03-25T03:33:17;291.00;;;275.80;;
27293;SDS011;14785;52.556;13.430;2024-03-25T03:35:42;149.80;;;141.30;;
27293;SDS011;14785;52.556;13.430;2024-03-25T03:38:08;155.75;;;146.55;;
27293;SDS011;14785;52.556;13.430;2024-03-25T03:40:33;238.37;;;225.43;;
27293;SDS011;14785;52.556;13.430;2024-03-25T03:42:59;111.67;;;104.97;;
27293;SDS011;14785;52.556;13.430;2024-03-25T03:45:24;105.17;;;98.77;;
27293;SDS011;14785;52.556;13.430;2024-03-25T03:47:50;96.22;;;89.57;;
27293;SDS011;14785;52.556;13.430;2024-03-25T03:50:18;97.57;;;91.20;;
27293;SDS011;14785;52.556;13.430;2024-03-25T03:52:43;99.10;;;92.63;;
27293;SDS011;14785;52.556;13.430;2024-03-25T03:57:35;139.10;;;130.98;;
27293;SDS011;14785;52.556;13.430;2024-03-25T04:00:01;52.13;;;48.35;;
27293;SDS011;14785;52.556;13.430;2024-03-25T04:02:27;67.77;;;63.47;;
27293;SDS011;14785;52.556;13.430;2024-03-25T04:04:53;96.35;;;90.20;;
27293;SDS011;14785;52.556;13.430;2024-03-25T04:07:19;138.80;;;130.77;;
27293;SDS011;14785;52.556;13.430;2024-03-25T04:09:44;98.50;;;92.20;;
27293;SDS011;14785;52.556;13.430;2024-03-25T04:12:09;145.80;;;137.13;;
27293;SDS011;14785;52.556;13.430;2024-03-25T04:14:35;105.72;;;99.53;;
27293;SDS011;14785;52.556;13.430;2024-03-25T04:17:01;104.47;;;98.27;;
27293;SDS011;14785;52.556;13.430;2024-03-25T04:19:26;160.23;;;151.43;;
27293;SDS011;14785;52.556;13.430;2024-03-25T04:21:55;248.00;;;234.73;;
27293;SDS011;14785;52.556;13.430;2024-03-25T04:24:21;196.70;;;185.93;;
27293;SDS011;14785;52.556;13.430;2024-03-25T04:26:47;164.05;;;154.85;;
27293;SDS011;14785;52.556;13.430;2024-03-25T04:29:13;163.63;;;154.57;;
27293;SDS011;14785;52.556;13.430;2024-03-25T04:31:40;137.30;;;129.35;;
27293;SDS011;14785;52.556;13.430;2024-03-25T04:34:05;76.77;;;72.20;;
27293;SDS011;14785;52.556;13.430;2024-03-25T04:36:30;111.07;;;104.73;;
27293;SDS011;14785;52.556;13.430;2024-03-25T04:38:56;138.90;;;131.43;;
27293;SDS011;14785;52.556;13.430;2024-03-25T04:41:22;206.73;;;196.00;;
27293;SDS011;14785;52.556;13.430;2024-03-25T04:43:49;139.73;;;132.17;;
27293;SDS011;14785;52.556;13.430;2024-03-25T04:46:14;155.68;;;147.20;;
27293;SDS011;14785;52.556;13.430;2024-03-25T04:48:40;92.40;;;87.07;;
27293;SDS011;14785;52.556;13.430;2024-03-25T04:51:05;306.40;;;290.17;;
27293;SDS011;14785;52.556;13.430;2024-03-25T04:53:32;61.08;;;57.28;;
27293;SDS011;14785;52.556;13.430;2024-03-25T04:55:57;77.67;;;72.60;;
27293;SDS011;14785;52.556;13.430;2024-03-25T04:58:23;65.37;;;61.17;;
27293;SDS011;14785;52.556;13.430;2024-03-25T05:00:48;114.50;;;107.47;;
27293;SDS011;14785;52.556;13.430;2024-03-25T05:03:13;165.83;;;156.40;;
27293;SDS011;14785;52.556;13.430;2024-03-25T05:05:39;177.27;;;166.97;;
27293;SDS011;14785;52.556;13.430;2024-03-25T05:08:04;159.10;;;149.83;;
27293;SDS011;14785;52.556;13.430;2024-03-25T05:10:30;132.98;;;125.05;;
27293;SDS011;14785;52.556;13.430;2024-03-25T05:12:56;116.30;;;109.17;;
27293;SDS011;14785;52.556;13.430;2024-03-25T05:15:23;103.40;;;96.72;;
27293;SDS011;14785;52.556;13.430;2024-03-25T05:17:51;65.97;;;61.42;;
27293;SDS011;14785;52.556;13.430;2024-03-25T05:20:17;88.23;;;82.47;;
27293;SDS011;14785;52.556;13.430;2024-03-25T05:22:42;302.53;;;286.30;;
27293;SDS011;14785;52.556;13.430;2024-03-25T05:25:08;303.50;;;287.23;;
27293;SDS011;14785;52.556;13.430;2024-03-25T05:27:33;174.90;;;164.97;;
27293;SDS011;14785;52.556;13.430;2024-03-25T05:29:59;94.20;;;88.07;;
27293;SDS011;14785;52.556;13.430;2024-03-25T05:32:24;107.93;;;101.73;;
27293;SDS011;14785;52.556;13.430;2024-03-25T05:34:50;112.32;;;105.82;;
27293;SDS011;14785;52.556;13.430;2024-03-25T05:37:15;95.00;;;89.37;;
27293;SDS011;14785;52.556;13.430;2024-03-25T05:39:41;75.07;;;70.50;;
27293;SDS011;14785;52.556;13.430;2024-03-25T05:42:06;96.40;;;90.80;;
27293;SDS011;14785;52.556;13.430;2024-03-25T05:44:31;90.33;;;84.93;;
27293;SDS011;14785;52.556;13.430;2024-03-25T05:46:57;135.23;;;127.80;;
27293;SDS011;14785;52.556;13.430;2024-03-25T05:49:23;157.80;;;149.07;;
27293;SDS011;14785;52.556;13.430;2024-03-25T05:51:49;275.00;;;260.17;;
27293;SDS011;14785;52.556;13.430;2024-03-25T05:54:14;370.20;;;350.37;;
27293;SDS011;14785;52.556;13.430;2024-03-25T05:56:40;124.38;;;116.78;;
27293;SDS011;14785;52.556;13.430;2024-03-25T05:59:05;92.60;;;86.40;;
27293;SDS011;14785;52.556;13.430;2024-03-25T06:01:31;104.17;;;97.53;;
27293;SDS011;14785;52.556;13.430;2024-03-25T06:03:56;63.67;;;58.83;;
27293;SDS011;14785;52.556;13.430;2024-03-25T06:06:21;79.10;;;73.70;;
27293;SDS011;14785;52.556;13.430;2024-03-25T06:08:47;85.50;;;79.10;;
27293;SDS011;14785;52.556;13.430;2024-03-25T06:11:12;115.27;;;107.63;;
27293;SDS011;14785;52.556;13.430;2024-03-25T06:13:37;96.53;;;89.83;;
27293;SDS011;14785;52.556;13.430;2024-03-25T06:16:03;70.47;;;65.73;;
27293;SDS011;14785;52.556;13.430;2024-03-25T06:18:29;83.78;;;78.15;;
27293;SDS011;14785;52.556;13.430;2024-03-25T06:20:54;76.43;;;70.87;;
27293;SDS011;14785;52.556;13.430;2024-03-25T06:23:23;69.80;;;64.43;;
27293;SDS011;14785;52.556;13.430;2024-03-25T06:25:49;89.82;;;83.68;;
27293;SDS011;14785;52.556;13.430;2024-03-25T06:28:18;68.38;;;63.55;;
27293;SDS011;14785;52.556;13.430;2024-03-25T06:30:45;82.43;;;76.93;;
27293;SDS011;14785;52.556;13.430;2024-03-25T06:33:30;121.10;;;113.78;;
27293;SDS011;14785;52.556;13.430;2024-03-25T06:36:14;115.25;;;108.15;;
27293;SDS011;14785;52.556;13.430;2024-03-25T06:38:40;119.90;;;112.50;;
27293;SDS011;14785;52.556;13.430;2024-03-25T06:41:06;149.47;;;141.27;;
27293;SDS011;14785;52.556;13.430;2024-03-25T06:43:31;132.97;;;124.40;;
27293;SDS011;14785;52.556;13.430;2024-03-25T06:45:56;159.23;;;150.20;;
27293;SDS011;14785;52.556;13.430;2024-03-25T06:48:23;143.55;;;134.88;;
27293;SDS011;14785;52.556;13.430;2024-03-25T06:50:52;108.57;;;101.63;;
27293;SDS011;14785;52.556;13.430;2024-03-25T06:53:21;50.53;;;46.80;;
27293;SDS011;14785;52.556;13.430;2024-03-25T06:55:54;65.80;;;60.95;;
27293;SDS011;14785;52.556;13.430;2024-03-25T06:58:21;180.02;;;170.02;;
27293;SDS011;14785;52.556;13.430;2024-03-25T07:00:47;96.50;;;90.15;;
27293;SDS011;14785;52.556;13.430;2024-03-25T07:03:17;110.90;;;104.05;;
27293;SDS011;14785;52.556;13.430;2024-03-25T07:05:44;91.18;;;85.20;;
27293;SDS011;14785;52.556;13.430;2024-03-25T07:08:10;131.00;;;123.20;;
27293;SDS011;14785;52.556;13.430;2024-03-25T07:10:36;71.63;;;66.60;;
27293;SDS011;14785;52.556;13.430;2024-03-25T07:13:01;124.30;;;116.20;;
27293;SDS011;14785;52.556;13.430;2024-03-25T07:15:27;104.00;;;97.37;;
27293;SDS011;14785;52.556;13.430;2024-03-25T07:17:52;84.03;;;78.27;;
27293;SDS011;14785;52.556;13.430;2024-03-25T07:20:18;84.07;;;78.73;;
27293;SDS011;14785;52.556;13.430;2024-03-25T07:22:44;114.78;;;106.93;;
27293;SDS011;14785;52.556;13.430;2024-03-25T07:25:09;100.07;;;94.20;;
27293;SDS011;14785;52.556;13.430;2024-03-25T07:27:36;76.53;;;71.50;;
27293;SDS011;14785;52.556;13.430;2024-03-25T07:30:03;86.05;;;80.45;;
27293;SDS011;14785;52.556;13.430;2024-03-25T07:32:31;79.60;;;74.13;;
27293;SDS011;14785;52.556;13.430;2024-03-25T07:34:59;69.47;;;65.13;;
27293;SDS011;14785;52.556;13.430;2024-03-25T07:37:24;144.87;;;136.67;;
27293;SDS011;14785;52.556;13.430;2024-03-25T07:39:50;173.60;;;163.80;;
27293;SDS011;14785;52.556;13.430;2024-03-25T07:42:15;92.90;;;86.93;;
27293;SDS011;14785;52.556;13.430;2024-03-25T07:44:40;62.00;;;57.77;;
27293;SDS011;14785;52.556;13.430;2024-03-25T07:47:06;101.53;;;95.17;;
27293;SDS011;14785;52.556;13.430;2024-03-25T07:49:31;89.00;;;83.60;;
27293;SDS011;14785;52.556;13.430;2024-03-25T07:52:00;93.30;;;87.80;;
27293;SDS011;14785;52.556;13.430;2024-03-25T07:54:25;68.20;;;64.10;;
27293;SDS011;14785;52.556;13.430;2024-03-25T07:56:52;83.32;;;78.35;;
27293;SDS011;14785;52.556;13.430;2024-03-25T07:59:18;78.88;;;73.90;;
27293;SDS011;14785;52.556;13.430;2024-03-25T08:01:44;119.50;;;112.60;;
27293;SDS011;14785;52.556;13.430;2024-03-25T08:04:09;107.87;;;101.37;;
27293;SDS011;14785;52.556;13.430;2024-03-25T08:06:34;100.93;;;94.90;;
27293;SDS011;14785;52.556;13.430;2024-03-25T08:09:00;89.17;;;84.00;;
27293;SDS011;14785;52.556;13.430;2024-03-25T08:11:30;106.07;;;100.13;;
27293;SDS011;14785;52.556;13.430;2024-03-25T08:13:56;83.18;;;78.05;;
27293;SDS011;14785;52.556;13.430;2024-03-25T08:16:23;98.35;;;92.60;;
27293;SDS011;14785;52.556;13.430;2024-03-25T08:18:48;96.95;;;90.93;;
27293;SDS011;14785;52.556;13.430;2024-03-25T08:21:14;77.07;;;72.03;;
27293;SDS011;14785;52.556;13.430;2024-03-25T08:23:40;94.53;;;88.80;;
27293;SDS011;14785;52.556;13.430;2024-03-25T08:26:06;79.90;;;74.90;;
27293;SDS011;14785;52.556;13.430;2024-03-25T08:28:32;115.43;;;108.33;;
27293;SDS011;14785;52.556;13.430;2024-03-25T08:30:57;139.35;;;131.32;;
27293;SDS011;14785;52.556;13.430;2024-03-25T08:33:23;92.27;;;86.67;;
27293;SDS011;14785;52.556;13.430;2024-03-25T08:35:49;78.68;;;73.93;;
27293;SDS011;14785;52.556;13.430;2024-03-25T08:38:15;94.07;;;88.47;;
27293;SDS011;14785;52.556;13.430;2024-03-25T08:40:41;121.13;;;113.93;;
27293;SDS011;14785;52.556;13.430;2024-03-25T08:43:06;126.93;;;119.30;;
27293;SDS011;14785;52.556;13.430;2024-03-25T08:45:33;112.53;;;106.10;;
27293;SDS011;14785;52.556;13.430;2024-03-25T08:47:58;106.33;;;100.20;;
27293;SDS011;14785;52.556;13.430;2024-03-25T08:50:24;179.80;;;169.83;;
27293;SDS011;14785;52.556;13.430;2024-03-25T08:52:49;155.13;;;145.80;;
27293;SDS011;14785;52.556;13.430;2024-03-25T08:55:15;86.90;;;81.27;;
27293;SDS011;14785;52.556;13.430;2024-03-25T08:57:40;46.77;;;43.70;;
27293;SDS011;14785;52.556;13.430;2024-03-25T09:00:07;40.95;;;37.95;;
27293;SDS011;14785;52.556;13.430;2024-03-25T09:02:35;62.45;;;58.08;;
27293;SDS011;14785;52.556;13.430;2024-03-25T09:05:04;65.10;;;60.70;;
27293;SDS011;14785;52.556;13.430;2024-03-25T09:07:33;47.05;;;43.88;;
27293;SDS011;14785;52.556;13.430;2024-03-25T09:10:00;56.80;;;52.90;;
27293;SDS011;14785;52.556;13.430;2024-03-25T09:12:44;62.47;;;58.20;;
27293;SDS011;14785;52.556;13.430;2024-03-25T09:15:10;84.60;;;79.47;;
27293;SDS011;14785;52.556;13.430;2024-03-25T09:17:35;72.43;;;67.80;;
27293;SDS011;14785;52.556;13.430;2024-03-25T09:20:01;26.63;;;24.05;;
27293;SDS011;14785;52.556;13.430;2024-03-25T09:22:29;56.05;;;52.05;;
27293;SDS011;14785;52.556;13.430;2024-03-25T09:24:56;51.55;;;48.05;;
27293;SDS011;14785;52.556;13.430;2024-03-25T09:27:21;37.80;;;34.20;;
27293;SDS011;14785;52.556;13.430;2024-03-25T09:29:47;63.30;;;58.97;;
27293;SDS011;14785;52.556;13.430;2024-03-25T09:32:12;18.50;;;16.87;;
27293;SDS011;14785;52.556;13.430;2024-03-25T09:34:38;17.13;;;15.37;;
27293;SDS011;14785;52.556;13.430;2024-03-25T09:37:03;17.80;;;14.27;;
27293;SDS011;14785;52.556;13.430;2024-03-25T09:39:30;31.13;;;29.07;;
27293;SDS011;14785;52.556;13.430;2024-03-25T09:41:55;32.72;;;30.08;;
27293;SDS011;14785;52.556;13.430;2024-03-25T09:44:26;33.97;;;31.00;;
27293;SDS011;14785;52.556;13.430;2024-03-25T09:46:56;31.85;;;29.08;;
27293;SDS011;14785;52.556;13.430;2024-03-25T09:49:24;32.20;;;29.73;;
27293;SDS011;14785;52.556;13.430;2024-03-25T09:51:51;37.00;;;34.05;;
27293;SDS011;14785;52.556;13.430;2024-03-25T09:54:17;49.85;;;46.38;;
27293;SDS011;14785;52.556;13.430;2024-03-25T09:56:43;50.57;;;47.30;;
27293;SDS011;14785;52.556;13.430;2024-03-25T09:59:09;33.05;;;29.88;;
27293;SDS011;14785;52.556;13.430;2024-03-25T10:01:35;34.93;;;32.03;;
27293;SDS011;14785;52.556;13.430;2024-03-25T10:04:02;48.67;;;45.27;;
27293;SDS011;14785;52.556;13.430;2024-03-25T10:06:27;85.93;;;80.57;;
27293;SDS011;14785;52.556;13.430;2024-03-25T10:08:54;37.78;;;34.63;;
27293;SDS011;14785;52.556;13.430;2024-03-25T10:11:22;32.47;;;29.92;;
27293;SDS011;14785;52.556;13.430;2024-03-25T10:13:47;25.13;;;23.07;;
27293;SDS011;14785;52.556;13.430;2024-03-25T10:16:13;27.03;;;24.60;;
27293;SDS011;14785;52.556;13.430;2024-03-25T10:18:40;25.38;;;22.90;;
27293;SDS011;14785;52.556;13.430;2024-03-25T10:21:09;20.65;;;18.75;;
27293;SDS011;14785;52.556;13.430;2024-03-25T10:23:35;28.55;;;26.45;;
27293;SDS011;14785;52.556;13.430;2024-03-25T10:26:05;18.40;;;16.45;;
27293;SDS011;14785;52.556;13.430;2024-03-25T10:28:31;21.13;;;19.27;;
27293;SDS011;14785;52.556;13.430;2024-03-25T10:31:04;19.27;;;16.85;;
27293;SDS011;14785;52.556;13.430;2024-03-25T10:33:30;16.80;;;14.40;;
27293;SDS011;14785;52.556;13.430;2024-03-25T10:35:56;16.80;;;15.37;;
27293;SDS011;14785;52.556;13.430;2024-03-25T10:38:24;17.58;;;15.98;;
27293;SDS011;14785;52.556;13.430;2024-03-25T10:40:50;13.45;;;12.35;;
27293;SDS011;14785;52.556;13.430;2024-03-25T10:43:21;19.90;;;18.27;;
27293;SDS011;14785;52.556;13.430;2024-03-25T10:45:52;15.57;;;14.32;;
27293;SDS011;14785;52.556;13.430;2024-03-25T10:48:25;13.05;;;11.85;;
27293;SDS011;14785;52.556;13.430;2024-03-25T10:50:53;13.00;;;11.95;;
27293;SDS011;14785;52.556;13.430;2024-03-25T10:53:22;13.57;;;12.20;;
27293;SDS011;14785;52.556;13.430;2024-03-25T10:55:50;13.27;;;11.88;;
27293;SDS011;14785;52.556;13.430;2024-03-25T10:58:18;13.32;;;12.40;;
27293;SDS011;14785;52.556;13.430;2024-03-25T11:00:52;13.80;;;12.52;;
27293;SDS011;14785;52.556;13.430;2024-03-25T11:03:22;13.48;;;12.18;;
27293;SDS011;14785;52.556;13.430;2024-03-25T11:05:48;15.45;;;14.15;;
27293;SDS011;14785;52.556;13.430;2024-03-25T11:08:15;11.95;;;10.85;;
27293;SDS011;14785;52.556;13.430;2024-03-25T11:10:47;9.80;;;8.80;;
27293;SDS011;14785;52.556;13.430;2024-03-25T11:13:13;9.30;;;8.15;;
27293;SDS011;14785;52.556;13.430;2024-03-25T11:15:40;10.75;;;9.63;;
27293;SDS011;14785;52.556;13.430;2024-03-25T11:18:10;11.27;;;10.48;;
27293;SDS011;14785;52.556;13.430;2024-03-25T11:20:44;10.95;;;10.15;;
27293;SDS011;14785;52.556;13.430;2024-03-25T11:23:09;14.07;;;13.02;;
27293;SDS011;14785;52.556;13.430;2024-03-25T11:25:37;7.43;;;6.82;;
27293;SDS011;14785;52.556;13.430;2024-03-25T11:28:03;8.88;;;8.13;;
27293;SDS011;14785;52.556;13.430;2024-03-25T11:30:29;9.05;;;8.35;;
27293;SDS011;14785;52.556;13.430;2024-03-25T11:32:56;8.48;;;7.72;;
27293;SDS011;14785;52.556;13.430;2024-03-25T11:35:23;8.32;;;7.60;;
27293;SDS011;14785;52.556;13.430;2024-03-25T11:37:48;8.33;;;7.67;;
27293;SDS011;14785;52.556;13.430;2024-03-25T11:40:15;8.80;;;8.02;;
27293;SDS011;14785;52.556;13.430;2024-03-25T11:42:41;13.17;;;12.07;;
27293;SDS011;14785;52.556;13.430;2024-03-25T11:45:16;8.73;;;7.93;;
27293;SDS011;14785;52.556;13.430;2024-03-25T11:47:43;8.05;;;7.20;;
27293;SDS011;14785;52.556;13.430;2024-03-25T11:52:38;10.85;;;9.52;;
27293;SDS011;14785;52.556;13.430;2024-03-25T11:55:03;10.17;;;9.27;;
27293;SDS011;14785;52.556;13.430;2024-03-25T11:57:29;9.20;;;8.37;;
27293;SDS011;14785;52.556;13.430;2024-03-25T11:59:54;12.63;;;11.73;;
27293;SDS011;14785;52.556;13.430;2024-03-25T12:02:20;9.67;;;8.60;;
27293;SDS011;14785;52.556;13.430;2024-03-25T12:04:47;12.68;;;11.88;;
27293;SDS011;14785;52.556;13.430;2024-03-25T12:07:13;10.52;;;9.60;;
27293;SDS011;14785;52.556;13.430;2024-03-25T12:09:39;8.18;;;7.57;;
27293;SDS011;14785;52.556;13.430;2024-03-25T12:12:24;11.60;;;10.50;;
27293;SDS011;14785;52.556;13.430;2024-03-25T12:14:50;8.63;;;7.82;;
27293;SDS011;14785;52.556;13.430;2024-03-25T12:17:17;7.85;;;7.05;;
27293;SDS011;14785;52.556;13.430;2024-03-25T12:19:43;7.87;;;7.33;;
27293;SDS011;14785;52.556;13.430;2024-03-25T12:22:33;9.18;;;8.25;;
27293;SDS011;14785;52.556;13.430;2024-03-25T12:25:00;10.18;;;9.55;;
27293;SDS011;14785;52.556;13.430;2024-03-25T12:27:29;9.10;;;7.70;;
27293;SDS011;14785;52.556;13.430;2024-03-25T12:30:01;9.07;;;8.50;;
27293;SDS011;14785;52.556;13.430;2024-03-25T12:32:38;9.23;;;8.52;;
27293;SDS011;14785;52.556;13.430;2024-03-25T12:37:40;10.45;;;9.50;;
27293;SDS011;14785;52.556;13.430;2024-03-25T12:40:07;7.72;;;6.68;;
27293;SDS011;14785;52.556;13.430;2024-03-25T12:42:35;8.30;;;6.50;;
27293;SDS011;14785;52.556;13.430;2024-03-25T12:45:01;10.35;;;7.38;;
27293;SDS011;14785;52.556;13.430;2024-03-25T12:49:53;7.13;;;6.50;;
27293;SDS011;14785;52.556;13.430;2024-03-25T12:52:18;10.13;;;9.23;;
27293;SDS011;14785;52.556;13.430;2024-03-25T12:54:44;8.00;;;7.37;;
27293;SDS011;14785;52.556;13.430;2024-03-25T12:57:10;7.00;;;5.83;;
27293;SDS011;14785;52.556;13.430;2024-03-25T12:59:36;6.85;;;6.30;;
27293;SDS011;14785;52.556;13.430;2024-03-25T13:02:02;6.88;;;6.35;;
27293;SDS011;14785;52.556;13.430;2024-03-25T13:04:28;6.57;;;5.97;;
27293;SDS011;14785;52.556;13.430;2024-03-25T13:06:53;6.90;;;5.63;;
27293;SDS011;14785;52.556;13.430;2024-03-25T13:09:18;7.00;;;6.33;;
27293;SDS011;14785;52.556;13.430;2024-03-25T13:11:45;7.25;;;6.75;;
27293;SDS011;14785;52.556;13.430;2024-03-25T13:14:12;7.50;;;6.97;;
27293;SDS011;14785;52.556;13.430;2024-03-25T13:16:40;7.70;;;7.10;;
27293;SDS011;14785;52.556;13.430;2024-03-25T13:19:06;12.45;;;6.85;;
27293;SDS011;14785;52.556;13.430;2024-03-25T13:21:31;7.43;;;6.80;;
27293;SDS011;14785;52.556;13.430;2024-03-25T13:23:57;7.85;;;7.13;;
27293;SDS011;14785;52.556;13.430;2024-03-25T13:26:23;9.95;;;9.25;;
27293;SDS011;14785;52.556;13.430;2024-03-25T13:28:48;7.97;;;7.17;;
27293;SDS011;14785;52.556;13.430;2024-03-25T13:31:15;6.77;;;6.30;;
27293;SDS011;14785;52.556;13.430;2024-03-25T13:33:42;8.38;;;7.68;;
27293;SDS011;14785;52.556;13.430;2024-03-25T13:36:07;8.00;;;7.30;;
27293;SDS011;14785;52.556;13.430;2024-03-25T13:38:33;7.07;;;6.68;;
27293;SDS011;14785;52.556;13.430;2024-03-25T13:40:59;12.70;;;7.47;;
27293;SDS011;14785;52.556;13.430;2024-03-25T13:43:25;7.82;;;7.22;;
27293;SDS011;14785;52.556;13.430;2024-03-25T13:45:50;7.63;;;6.90;;
27293;SDS011;14785;52.556;13.430;2024-03-25T13:48:16;8.73;;;8.13;;
27293;SDS011;14785;52.556;13.430;2024-03-25T13:50:41;6.67;;;6.10;;
27293;SDS011;14785;52.556;13.430;2024-03-25T13:53:08;9.57;;;8.77;;
27293;SDS011;14785;52.556;13.430;2024-03-25T13:55:34;7.85;;;6.80;;
27293;SDS011;14785;52.556;13.430;2024-03-25T13:58:00;10.27;;;9.48;;
27293;SDS011;14785;52.556;13.430;2024-03-25T14:00:26;9.60;;;8.90;;
27293;SDS011;14785;52.556;13.430;2024-03-25T14:02:53;23.92;;;22.30;;
27293;SDS011;14785;52.556;13.430;2024-03-25T14:05:19;12.07;;;11.13;;
27293;SDS011;14785;52.556;13.430;2024-03-25T14:07:46;14.93;;;14.02;;
27293;SDS011;14785;52.556;13.430;2024-03-25T14:10:12;10.02;;;9.18;;
27293;SDS011;14785;52.556;13.430;2024-03-25T14:12:37;14.90;;;13.83;;
27293;SDS011;14785;52.556;13.430;2024-03-25T14:15:03;13.33;;;12.57;;
27293;SDS011;14785;52.556;13.430;2024-03-25T14:17:29;11.68;;;10.85;;
27293;SDS011;14785;52.556;13.430;2024-03-25T14:19:55;9.63;;;8.63;;